Main page
METAR-TAF:

METAR-TAF

Airports :

Zahedan, Iran

Zahedan Airport

latitude: 29-28N, longitude: 060-53E, elevation: 1370 m

Current weather observation

The report was made 19 minutes ago, at 10:00 UTC
Wind 6 kt from the East
Temperature 34°C
Humidity 10%
Pressure 1011 hPa
Visibility 10 km or more
no clouds below 1500 m and no cumulonimbus

METAR: OIZH 211000Z 10006KT CAVOK 34/M02 Q1011 A2986 NOSIG

Time: 14:49 (10:19 UTC)

Forecast

The report was made 5 hours and 19 minutes ago, at 05:00 UTC
Forecast valid from 21 at 06 UTC to 22 at 12 UTC
Wind 8 kt from the North/Northeast
Visibility 10 km or more
no clouds below 1500 m and no cumulonimbus
Temporary
from 21 at 12 UTC to 21 at 18 UTC
Wind 14 kt from the North/Northwest

TAF: OIZH 210500Z 2106/2212 03004MPS CAVOK TEMPO 2112/2118 34007MPS

Weather observations and forecasts of more than 4000 airports (METAR and TAF reports).

The available stations are represented by yellow and red dots on the map.

Hover mouse over dot to see the name of the station.

Then click to see weather observations and forecasts.

To change the map : click on the green buttons with a black cross to zoom in, on the green button with a dash to zoom out, or on the green arrows for adjacent maps.


METAR-TAF: